createdAt,value
2018-07-11T00:02:04.263Z,101801.98
2018-07-11T00:04:33.323Z,101800.14
2018-07-11T00:07:02.503Z,101794.72
2018-07-11T00:09:31.492Z,101795.20
2018-07-11T00:12:00.319Z,101787.45
2018-07-11T00:14:29.348Z,101794.72
2018-07-11T00:17:03.592Z,101785.72
2018-07-11T00:19:32.603Z,101792.00
2018-07-11T00:22:01.721Z,101782.14
2018-07-11T00:24:30.865Z,101779.43
2018-07-11T00:26:59.873Z,101776.22
2018-07-11T00:29:28.763Z,101778.45
2018-07-11T00:31:57.768Z,101779.80
2018-07-11T00:34:26.945Z,101778.08
2018-07-11T00:36:56.098Z,101778.59
2018-07-11T00:39:25.353Z,101773.17
2018-07-11T00:41:54.465Z,101777.73
2018-07-11T00:44:23.360Z,101777.25
2018-07-11T00:46:52.520Z,101774.16
2018-07-11T00:49:21.633Z,101774.16
2018-07-11T00:51:50.641Z,101769.23
2018-07-11T00:54:19.719Z,101770.09
2018-07-11T00:56:49.656Z,101767.02
2018-07-11T00:59:24.860Z,101771.61
2018-07-11T01:01:55.061Z,101762.61
2018-07-11T01:04:24.234Z,101762.61
2018-07-11T01:06:53.450Z,101768.52
2018-07-11T01:09:22.400Z,101768.64
2018-07-11T01:11:51.387Z,101767.81
2018-07-11T01:14:20.423Z,101770.00
2018-07-11T01:16:49.356Z,101767.81
2018-07-11T01:19:18.466Z,101763.38
2018-07-11T01:21:48.341Z,101766.09
2018-07-11T01:24:17.387Z,101761.65
2018-07-11T01:26:46.317Z,101763.00
2018-07-11T01:29:15.262Z,101758.94
2018-07-11T01:31:44.401Z,101759.09
2018-07-11T01:34:13.316Z,101755.52
2018-07-11T01:36:42.316Z,101741.25
2018-07-11T01:39:11.236Z,101748.40
2018-07-11T01:41:40.338Z,101748.03
2018-07-11T01:44:09.394Z,101745.81
2018-07-11T01:46:45.624Z,101744.95
2018-07-11T01:49:15.001Z,101738.17
2018-07-11T01:51:55.426Z,101735.13
2018-07-11T01:54:24.754Z,101739.19
2018-07-11T01:56:53.911Z,101736.11
2018-07-11T01:59:24.306Z,101733.39
2018-07-11T02:01:53.508Z,101736.59
2018-07-11T02:04:22.583Z,101730.69
2018-07-11T02:06:51.592Z,101730.34
2018-07-11T02:09:20.670Z,101739.83
2018-07-11T02:11:49.877Z,101732.20
2018-07-11T02:14:19.242Z,101731.70
2018-07-11T02:16:48.276Z,101736.26
2018-07-11T02:19:19.685Z,101733.05
2018-07-11T02:21:49.524Z,101733.55
2018-07-11T02:24:18.629Z,101732.20
2018-07-11T02:26:47.641Z,101728.62
2018-07-11T02:29:16.972Z,101729.97
2018-07-11T02:31:45.869Z,101722.21
2018-07-11T02:34:15.054Z,101728.98
2018-07-11T02:36:43.961Z,101727.63
2018-07-11T02:39:12.897Z,101726.61
2018-07-11T02:41:41.894Z,101727.63
2018-07-11T02:44:10.749Z,101730.69
2018-07-11T02:47:43.591Z,101733.77
2018-07-11T02:50:13.166Z,101711.70
2018-07-11T02:52:42.627Z,101717.13
2018-07-11T02:55:11.582Z,101718.86
2018-07-11T02:57:40.606Z,101716.48
2018-07-11T03:00:09.558Z,101718.70
2018-07-11T03:02:38.497Z,101714.14
2018-07-11T03:05:07.696Z,101705.52
2018-07-11T03:07:36.786Z,101705.02
2018-07-11T03:10:05.830Z,101707.36
2018-07-11T03:12:34.627Z,101704.16
2018-07-11T03:15:03.594Z,101701.08
2018-07-11T03:17:32.602Z,101706.38
2018-07-11T03:20:01.394Z,101706.01
2018-07-11T03:22:30.552Z,101718.58
2018-07-11T03:24:59.513Z,101719.07
2018-07-11T03:27:28.534Z,101715.00
2018-07-11T03:29:57.375Z,101704.22
2018-07-11T03:32:26.199Z,101705.64
2018-07-11T03:34:55.091Z,101707.36
2018-07-11T03:37:23.981Z,101704.66
2018-07-11T03:39:52.977Z,101710.78
2018-07-11T03:42:22.538Z,101711.16
2018-07-11T03:44:51.463Z,101707.42
2018-07-11T03:47:20.977Z,101704.59
2018-07-11T03:49:49.866Z,101703.45
2018-07-11T03:52:19.074Z,101705.02
2018-07-11T03:54:47.982Z,101702.67
2018-07-11T03:57:17.294Z,101708.66
2018-07-11T03:59:46.279Z,101713.30
2018-07-11T04:02:15.196Z,101709.94
2018-07-11T04:04:44.710Z,101709.30
2018-07-11T04:07:14.172Z,101713.95
2018-07-11T04:09:43.140Z,101710.58
2018-07-11T04:12:12.129Z,101712.64
2018-07-11T04:14:41.084Z,101714.77
2018-07-11T04:17:10.417Z,101710.05
2018-07-11T04:19:39.615Z,101706.69
2018-07-11T04:22:08.459Z,101712.82
2018-07-11T04:24:37.534Z,101707.61
2018-07-11T04:27:06.673Z,101712.41
2018-07-11T04:29:35.574Z,101709.55
2018-07-11T04:32:04.724Z,101705.69
2018-07-11T04:34:33.837Z,101707.74
2018-07-11T04:37:02.741Z,101709.52
2018-07-11T04:39:31.575Z,101704.83
2018-07-11T04:42:00.487Z,101707.75
2018-07-11T04:44:29.730Z,101704.72
2018-07-11T04:46:58.793Z,101699.50
2018-07-11T04:49:28.337Z,101706.00
2018-07-11T04:51:57.316Z,101699.59
2018-07-11T04:54:26.309Z,101701.16
2018-07-11T04:56:55.285Z,101702.72
2018-07-11T04:59:24.218Z,101704.78
2018-07-11T05:01:53.210Z,101698.85
2018-07-11T05:04:22.168Z,101700.05
2018-07-11T05:06:51.048Z,101696.84
2018-07-11T05:09:20.040Z,101696.19
2018-07-11T05:11:48.978Z,101692.11
2018-07-11T05:14:17.985Z,101690.26
2018-07-11T05:16:47.014Z,101691.98
2018-07-11T05:19:15.815Z,101692.19
2018-07-11T05:21:44.811Z,101693.39
2018-07-11T05:24:13.685Z,101695.11
2018-07-11T05:26:42.984Z,101682.81
2018-07-11T05:29:12.009Z,101692.77
2018-07-11T05:31:40.973Z,101697.66
2018-07-11T05:34:10.628Z,101693.26
2018-07-11T05:36:39.593Z,101694.45
2018-07-11T05:39:08.573Z,101694.45
2018-07-11T05:41:37.665Z,101692.97
2018-07-11T05:44:06.666Z,101693.70
2018-07-11T05:46:35.705Z,101692.19
2018-07-11T05:49:04.857Z,101692.06
2018-07-11T05:51:33.612Z,101696.17
2018-07-11T05:54:02.614Z,101689.75
2018-07-11T05:56:31.763Z,101696.09
2018-07-11T05:59:00.856Z,101689.87
2018-07-11T06:01:29.790Z,101692.26
2018-07-11T06:03:58.740Z,101690.77
2018-07-11T06:06:27.865Z,101686.91
2018-07-11T06:08:56.866Z,101688.83
2018-07-11T06:11:26.141Z,101683.23
2018-07-11T06:13:55.132Z,101679.86
2018-07-11T06:16:24.402Z,101684.63
2018-07-11T06:18:53.463Z,101681.28
2018-07-11T06:21:25.009Z,101680.26
2018-07-11T06:23:54.319Z,101684.90
2018-07-11T06:26:23.301Z,101685.27
2018-07-11T06:28:52.532Z,101684.11
2018-07-11T06:31:21.446Z,101679.50
2018-07-11T06:33:50.353Z,101685.14
2018-07-11T06:36:19.289Z,101682.28
2018-07-11T06:38:48.186Z,101679.41
2018-07-11T06:41:17.094Z,101682.48
2018-07-11T06:43:46.034Z,101685.04
2018-07-11T06:46:14.889Z,101683.19
2018-07-11T06:48:43.872Z,101677.95
2018-07-11T06:51:12.874Z,101680.53
2018-07-11T06:53:41.788Z,101682.62
2018-07-11T06:56:10.893Z,101680.23
2018-07-11T06:58:39.780Z,101676.52
2018-07-11T07:01:08.921Z,101680.11
2018-07-11T07:03:38.011Z,101678.58
2018-07-11T07:06:06.996Z,101673.84
2018-07-11T07:08:36.108Z,101679.14
2018-07-11T07:11:05.255Z,101672.18
2018-07-11T07:13:34.302Z,101667.61
2018-07-11T07:16:03.233Z,101670.16
2018-07-11T07:18:32.242Z,101670.88
2018-07-11T07:21:02.038Z,101668.50
2018-07-11T07:23:30.894Z,101671.08
2018-07-11T07:25:59.854Z,101669.56
2018-07-11T07:28:29.082Z,101658.69
2018-07-11T07:30:58.222Z,101658.38
2018-07-11T07:33:27.230Z,101652.58
2018-07-11T07:35:56.218Z,101663.66
2018-07-11T07:38:25.366Z,101659.44
2018-07-11T07:40:54.457Z,101654.00
2018-07-11T07:43:23.518Z,101652.14
2018-07-11T07:45:52.613Z,101648.07
2018-07-11T07:48:21.642Z,101647.91
2018-07-11T07:50:50.914Z,101643.82
2018-07-11T07:53:20.467Z,101641.47
2018-07-11T07:55:49.670Z,101637.39
2018-07-11T07:58:18.710Z,101643.66
2018-07-11T08:00:48.110Z,101643.16
2018-07-11T08:03:17.304Z,101638.22
2018-07-11T08:05:46.146Z,101642.30
2018-07-11T08:08:15.107Z,101628.38
2018-07-11T08:10:44.190Z,101633.81
2018-07-11T08:13:13.125Z,101635.17
2018-07-11T08:15:42.276Z,101634.81
2018-07-11T08:18:11.426Z,101636.53
2018-07-11T08:20:40.487Z,101632.59
2018-07-11T08:23:22.517Z,101634.31
2018-07-11T08:26:03.334Z,101638.55
2018-07-11T08:29:41.808Z,101636.34
2018-07-11T08:32:25.382Z,101635.45
2018-07-11T08:35:09.930Z,101636.94
2018-07-11T08:40:03.092Z,101639.66
2018-07-11T08:43:00.442Z,101640.27
2018-07-11T08:45:47.279Z,101638.88
2018-07-11T08:49:24.913Z,101641.59
2018-07-11T08:55:07.728Z,101645.47
2018-07-11T09:00:48.983Z,101642.80
2018-07-11T09:06:34.610Z,101653.56
2018-07-11T09:09:10.050Z,101651.23
2018-07-11T09:14:01.014Z,101656.31
2018-07-11T09:16:48.416Z,101658.69
2018-07-11T09:19:29.514Z,101661.91
2018-07-11T09:22:14.349Z,101652.77
2018-07-11T09:24:45.321Z,101657.53
2018-07-11T09:27:14.484Z,101664.16
2018-07-11T09:29:44.430Z,101667.73
2018-07-11T09:32:14.062Z,101665.22
2018-07-11T09:34:43.824Z,101654.85
2018-07-11T09:37:12.713Z,101665.09
2018-07-11T09:39:42.326Z,101661.52
2018-07-11T09:42:11.577Z,101657.77
2018-07-11T09:44:40.623Z,101658.30
2018-07-11T09:47:14.893Z,101666.78
2018-07-11T09:49:44.189Z,101658.30
2018-07-11T09:52:13.717Z,101664.72
2018-07-11T09:54:42.954Z,101658.80
2018-07-11T09:57:12.249Z,101664.23
2018-07-11T09:59:41.344Z,101661.02
2018-07-11T10:02:10.632Z,101655.22
2018-07-11T10:04:39.735Z,101660.65
2018-07-11T10:07:08.951Z,101655.38
2018-07-11T10:09:38.106Z,101660.28
2018-07-11T10:12:07.393Z,101654.52
2018-07-11T10:14:36.773Z,101650.45
2018-07-11T10:17:06.079Z,101654.66
2018-07-11T10:19:35.001Z,101658.73
2018-07-11T10:22:04.043Z,101650.25
2018-07-11T10:24:33.084Z,101657.53
2018-07-11T10:27:01.929Z,101653.46
2018-07-11T10:29:30.838Z,101652.23
2018-07-11T10:31:59.896Z,101651.73
2018-07-11T10:34:28.949Z,101650.87
2018-07-11T10:36:58.050Z,101651.91
2018-07-11T10:39:27.147Z,101649.31
2018-07-11T10:41:56.287Z,101649.31
2018-07-11T10:44:25.381Z,101654.75
2018-07-11T10:46:58.860Z,101656.77
2018-07-11T10:49:27.959Z,101651.50
2018-07-11T10:51:57.132Z,101660.51
2018-07-11T10:54:26.316Z,101651.63
2018-07-11T10:56:55.515Z,101645.38
2018-07-11T10:59:24.695Z,101649.45
2018-07-11T11:01:53.642Z,101657.23
2018-07-11T11:04:23.168Z,101652.45
2018-07-11T11:06:52.204Z,101651.59
2018-07-11T11:09:21.092Z,101655.50
2018-07-11T11:11:50.331Z,101646.00
2018-07-11T11:14:19.517Z,101636.66
2018-07-11T11:16:48.622Z,101639.38
2018-07-11T11:19:17.568Z,101639.38
2018-07-11T11:21:46.667Z,101634.94
2018-07-11T11:24:15.700Z,101632.22
2018-07-11T11:26:44.576Z,101636.66
2018-07-11T11:29:13.625Z,101641.23
2018-07-11T11:31:42.785Z,101635.43
2018-07-11T11:34:11.803Z,101632.38
2018-07-11T11:36:40.922Z,101630.36
2018-07-11T11:39:09.863Z,101636.45
2018-07-11T11:41:38.989Z,101635.09
2018-07-11T11:44:08.001Z,101632.38
2018-07-11T11:46:36.822Z,101638.31
2018-07-11T11:49:05.925Z,101634.73
2018-07-11T11:51:35.966Z,101633.87
2018-07-11T11:54:05.342Z,101633.05
2018-07-11T11:56:34.303Z,101629.47
2018-07-11T11:59:03.402Z,101625.89
2018-07-11T12:01:32.623Z,101635.89
2018-07-11T12:04:01.550Z,101641.32
2018-07-11T12:06:30.603Z,101637.41
2018-07-11T12:08:59.484Z,101636.05
2018-07-11T12:11:28.421Z,101628.41
2018-07-11T12:13:57.325Z,101630.63
2018-07-11T12:16:26.209Z,101620.42
2018-07-11T12:18:55.093Z,101620.91
2018-07-11T12:26:07.719Z,101621.51
2018-07-11T12:28:36.813Z,101606.37
2018-07-11T12:31:06.281Z,101615.17
2018-07-11T12:33:35.665Z,101607.37
2018-07-11T12:36:05.073Z,101614.16
2018-07-11T12:38:34.760Z,101608.72
2018-07-11T12:41:03.743Z,101599.19
2018-07-11T12:43:32.917Z,101609.95
2018-07-11T12:46:01.709Z,101606.20
2018-07-11T12:48:35.867Z,101607.06
2018-07-11T12:51:04.819Z,101605.22
2018-07-11T12:53:33.944Z,101607.44
2018-07-11T12:56:02.940Z,101598.43
2018-07-11T12:58:32.098Z,101603.73
2018-07-11T13:01:01.244Z,101595.22
2018-07-11T13:03:30.274Z,101597.44
2018-07-11T13:05:59.332Z,101594.36
2018-07-11T13:08:28.366Z,101585.15
2018-07-11T13:10:57.541Z,101584.72
2018-07-11T13:26:26.592Z,101571.67
2018-07-11T13:28:55.668Z,101582.03
2018-07-11T13:31:24.693Z,101577.17
2018-07-11T13:33:53.801Z,101566.85
2018-07-11T13:36:23.045Z,101577.91
2018-07-11T13:38:52.128Z,101570.33
2018-07-11T13:41:21.185Z,101570.53
2018-07-11T13:43:50.098Z,101560.88
2018-07-11T13:46:19.290Z,101567.03
2018-07-11T13:48:48.215Z,101560.08
2018-07-11T13:51:17.431Z,101567.59
2018-07-11T13:53:46.641Z,101564.88
2018-07-11T13:56:15.810Z,101567.80
2018-07-11T13:58:45.845Z,101565.45
2018-07-11T14:01:14.878Z,101566.80
2018-07-11T14:03:44.109Z,101560.38
2018-07-11T14:06:13.059Z,101560.88
2018-07-11T14:08:42.184Z,101558.00
2018-07-11T14:11:11.382Z,101560.72
2018-07-11T14:13:40.626Z,101549.86
2018-07-11T14:16:09.554Z,101551.70
2018-07-11T14:18:38.827Z,101550.88
2018-07-11T14:21:07.954Z,101552.23
2018-07-11T14:23:38.840Z,101548.99
2018-07-11T14:26:08.492Z,101545.09
2018-07-11T14:28:42.058Z,101559.52
2018-07-11T14:31:12.326Z,101552.23
2018-07-11T14:33:42.479Z,101554.95
2018-07-11T14:36:12.061Z,101559.02
2018-07-11T14:38:41.059Z,101541.94
2018-07-11T14:41:10.063Z,101557.30
2018-07-11T14:43:39.355Z,101560.52
2018-07-11T14:46:08.738Z,101555.95
2018-07-11T14:48:37.742Z,101555.58
2018-07-11T14:51:06.803Z,101556.44
2018-07-11T14:53:35.750Z,101559.66
2018-07-11T14:56:04.990Z,101411.34
2018-07-11T14:58:33.991Z,101552.53
2018-07-11T15:01:03.244Z,101552.53
2018-07-11T15:03:32.485Z,101542.67
2018-07-11T15:06:01.671Z,101540.45
2018-07-11T15:08:30.833Z,101545.38
2018-07-11T15:10:59.834Z,101540.45
2018-07-11T15:13:28.769Z,101539.95
2018-07-11T15:15:57.918Z,101545.38
2018-07-11T15:18:27.163Z,101535.52
2018-07-11T15:20:56.172Z,101542.30
2018-07-11T15:23:25.363Z,101533.80
2018-07-11T15:25:54.513Z,101536.02
2018-07-11T15:28:23.458Z,101544.16
2018-07-11T15:30:52.614Z,101545.02
2018-07-11T15:33:22.102Z,101553.66
2018-07-11T15:35:51.614Z,101555.87
2018-07-11T15:38:20.863Z,101554.52
2018-07-11T15:40:50.090Z,101554.66
2018-07-11T15:43:20.087Z,101552.80
2018-07-11T15:45:49.083Z,101562.30
2018-07-11T15:48:18.088Z,101562.30
2018-07-11T15:50:47.301Z,101562.30
2018-07-11T15:53:18.131Z,101557.03
2018-07-11T15:55:47.817Z,101553.79
2018-07-11T15:58:17.062Z,101547.37
2018-07-11T16:00:46.118Z,101553.30
2018-07-11T16:03:15.255Z,101549.72
2018-07-11T16:05:46.005Z,101546.80
2018-07-11T16:08:17.318Z,101554.32
2018-07-11T16:10:49.657Z,101545.81
2018-07-11T16:13:18.745Z,101545.81
2018-07-11T16:15:47.631Z,101550.38
2018-07-11T16:18:16.637Z,101553.09
2018-07-11T16:20:45.574Z,101550.38
2018-07-11T16:23:15.097Z,101555.81
2018-07-11T16:25:45.100Z,101558.52
2018-07-11T16:28:14.269Z,101559.88
2018-07-11T16:30:43.501Z,101554.95
2018-07-11T16:33:15.330Z,101551.38
2018-07-11T16:35:44.470Z,101554.95
2018-07-11T16:38:13.751Z,101547.30
2018-07-11T16:40:42.777Z,101545.45
2018-07-11T16:43:12.006Z,101545.95
2018-07-11T16:45:41.422Z,101548.66
2018-07-11T16:48:10.631Z,101540.19
2018-07-11T16:50:39.867Z,101543.23
2018-07-11T16:53:09.068Z,101549.52
2018-07-11T16:55:38.176Z,101547.30
2018-07-11T16:58:07.469Z,101542.40
2018-07-11T17:00:37.796Z,101546.97
2018-07-11T17:03:14.869Z,101544.25
2018-07-11T17:05:54.926Z,101544.25
2018-07-11T17:08:36.921Z,101541.54
2018-07-11T17:11:16.194Z,101542.70
2018-07-11T17:13:50.732Z,101543.19
2018-07-11T17:16:20.730Z,101537.77
2018-07-11T17:18:51.960Z,101539.62
2018-07-11T17:21:26.989Z,101540.48
2018-07-11T17:24:02.052Z,101541.47
2018-07-11T17:26:31.816Z,101544.72
2018-07-11T17:29:02.231Z,101537.06
2018-07-11T17:31:31.977Z,101537.93
2018-07-11T17:34:01.097Z,101536.70
2018-07-11T17:36:34.461Z,101535.84
2018-07-11T17:39:05.259Z,101539.42
2018-07-11T17:41:36.083Z,101535.84
2018-07-11T17:44:05.617Z,101533.66
2018-07-11T17:46:37.185Z,101537.73
2018-07-11T17:49:15.969Z,101535.52
2018-07-11T17:52:05.398Z,101540.08
2018-07-11T17:54:45.452Z,101547.36
2018-07-11T17:57:23.442Z,101551.09
2018-07-11T17:59:55.635Z,101468.51
2018-07-11T18:02:32.650Z,101552.45
2018-07-11T18:06:15.482Z,101551.09
2018-07-11T18:08:51.155Z,101552.25
2018-07-11T18:11:20.460Z,101548.31
2018-07-11T18:13:54.088Z,101550.66
2018-07-11T18:16:44.140Z,101551.52
2018-07-11T18:19:30.365Z,101558.80
2018-07-11T18:22:06.027Z,101559.66
2018-07-11T18:24:45.932Z,101557.45
2018-07-11T18:27:30.929Z,101562.37
2018-07-11T18:30:12.845Z,101560.16
2018-07-11T18:32:50.520Z,101559.33
2018-07-11T18:35:27.461Z,101563.40
2018-07-11T18:38:01.086Z,101565.25
2018-07-11T18:40:35.044Z,101563.03
2018-07-11T18:43:15.291Z,101563.03
2018-07-11T18:45:58.618Z,101565.75
2018-07-11T18:48:37.509Z,101558.59
2018-07-11T18:51:15.679Z,101562.67
2018-07-11T18:53:51.522Z,101572.17
2018-07-11T18:56:32.872Z,101569.13
2018-07-11T19:01:18.344Z,101577.26
2018-07-11T19:04:25.460Z,101572.78
2018-07-11T19:07:16.455Z,101574.92
2018-07-11T19:09:50.564Z,101575.09
2018-07-11T19:12:26.660Z,101580.84
2018-07-11T19:15:05.760Z,101574.59
2018-07-11T19:19:51.803Z,101578.50
2018-07-11T19:22:28.210Z,101578.42
2018-07-11T19:25:06.769Z,101573.66
2018-07-11T19:27:45.973Z,101575.02
2018-07-11T19:30:24.108Z,101576.37
2018-07-11T19:35:22.759Z,101579.95
2018-07-11T19:38:05.246Z,101585.81
2018-07-11T19:40:46.938Z,101581.88
2018-07-11T19:43:58.428Z,101585.45
2018-07-11T19:47:08.486Z,101593.75
2018-07-11T19:51:52.537Z,101546.66
2018-07-11T19:54:36.901Z,101596.38
2018-07-11T19:57:05.944Z,101592.97
2018-07-11T19:59:35.254Z,101595.69
2018-07-11T20:02:04.872Z,101592.84
2018-07-11T20:04:33.943Z,101583.69
2018-07-11T20:07:02.981Z,101583.69
2018-07-11T20:09:32.377Z,101587.10
2018-07-11T20:12:01.607Z,101595.23
2018-07-11T20:14:31.430Z,101586.27
2018-07-11T20:17:00.665Z,101589.81
2018-07-11T20:19:30.008Z,101594.74
2018-07-11T20:21:59.354Z,101596.47
2018-07-11T20:24:28.656Z,101594.74
2018-07-11T20:26:57.552Z,101596.59
2018-07-11T20:29:26.650Z,101596.96
2018-07-11T20:31:55.923Z,101599.67
2018-07-11T20:34:25.161Z,101605.09
2018-07-11T20:36:54.264Z,101600.66
2018-07-11T20:39:23.308Z,101604.73
2018-07-11T20:41:52.481Z,101607.97
2018-07-11T20:44:21.750Z,101599.31
2018-07-11T20:46:50.979Z,101602.87
2018-07-11T20:49:25.348Z,101602.02
2018-07-11T20:51:54.409Z,101603.25
2018-07-11T20:54:23.563Z,101597.45
2018-07-11T20:56:52.927Z,101597.45
2018-07-11T20:59:33.266Z,101574.11
2018-07-11T21:02:13.450Z,101594.25
2018-07-11T21:04:58.857Z,101598.48
2018-07-11T21:07:38.818Z,101597.61
2018-07-11T21:13:20.082Z,101594.91
2018-07-11T21:16:31.390Z,101582.36
2018-07-11T21:19:02.942Z,101584.58
2018-07-11T21:21:33.000Z,101582.86
2018-07-11T21:24:02.103Z,101582.70
2018-07-11T21:26:31.330Z,101570.00
2018-07-11T21:29:00.292Z,101574.44
2018-07-11T21:31:29.190Z,101576.98
2018-07-11T21:33:58.170Z,101571.56
2018-07-11T21:36:27.200Z,101577.84
2018-07-11T21:38:56.176Z,101571.77
2018-07-11T21:41:25.144Z,101572.79
2018-07-11T21:43:54.296Z,101573.62
2018-07-11T21:46:23.590Z,101578.70
2018-07-11T21:48:52.624Z,101569.55
2018-07-11T21:51:21.718Z,101578.55
2018-07-11T21:53:50.746Z,101585.82
2018-07-11T21:56:19.936Z,101579.57
2018-07-11T21:58:49.326Z,101576.86
2018-07-11T22:01:18.452Z,101574.48
2018-07-11T22:03:47.610Z,101574.97
2018-07-11T22:06:16.536Z,101577.19
2018-07-11T22:08:45.606Z,101575.50
2018-07-11T22:11:15.208Z,101567.86
2018-07-11T22:13:44.125Z,101569.70
2018-07-11T22:16:13.205Z,101578.70
2018-07-11T22:18:44.481Z,101577.48
2018-07-11T22:21:13.066Z,101580.19
2018-07-11T22:23:40.806Z,101577.14
2018-07-11T22:26:08.405Z,101571.72
2018-07-11T22:28:36.009Z,101577.64
2018-07-11T22:31:03.677Z,101574.06
2018-07-11T22:33:31.255Z,101580.52
2018-07-11T22:35:58.671Z,101575.58
2018-07-11T22:38:26.339Z,101570.66
2018-07-11T22:40:53.773Z,101569.76
2018-07-11T22:43:21.201Z,101562.64
2018-07-11T22:45:48.754Z,101562.27
2018-07-11T22:48:16.481Z,101562.27
2018-07-11T22:50:44.099Z,101555.13
2018-07-11T22:53:11.612Z,101558.86
2018-07-11T22:55:39.132Z,101561.08
2018-07-11T22:58:06.568Z,101567.49
2018-07-11T23:00:34.098Z,101573.91
2018-07-11T23:03:01.661Z,101573.91
2018-07-11T23:05:29.254Z,101576.28
2018-07-11T23:07:56.770Z,101574.56
2018-07-11T23:10:24.393Z,101568.64
2018-07-11T23:12:51.892Z,101567.41
2018-07-11T23:15:19.309Z,101563.34
2018-07-11T23:17:46.857Z,101558.45
2018-07-11T23:20:14.428Z,101556.23
2018-07-11T23:22:41.926Z,101553.16
2018-07-11T23:25:09.550Z,101551.67
2018-07-11T23:27:37.093Z,101560.63
2018-07-11T23:30:04.769Z,101559.80
2018-07-11T23:32:32.254Z,101557.09
2018-07-11T23:34:59.794Z,101560.80
2018-07-11T23:37:27.294Z,101554.02
2018-07-11T23:39:54.863Z,101556.72
2018-07-11T23:42:22.474Z,101554.51
2018-07-11T23:44:50.040Z,101555.37
2018-07-11T23:47:17.496Z,101557.59
2018-07-11T23:49:44.986Z,101557.59
2018-07-11T23:52:12.450Z,101552.66
2018-07-11T23:54:40.164Z,101544.03
2018-07-11T23:57:07.682Z,101518.02
2018-07-11T23:59:35.174Z,101537.74
